Time;durP1;ratioP1;P1;durP2;ratioP2;P2;SDS_P1;SDS_P2;PMS_P1;PMS_P2;Temp;Humidity;BMP_temperature;BMP_pressure;BME280_temperature;BME280_humidity;BME280_pressure;Samples;Min_cycle;Max_cycle;Signal;HPM_P1;HPM_P2
2022/08/20 00:02:23;;;;;;;9.63;5.28;;;;;;;20.27;100.00;101280.06;5050751;28;20041;-81
2022/08/20 00:04:49;;;;;;;8.57;5.50;;;;;;;20.25;100.00;101274.19;5050747;28;20032;-82
2022/08/20 00:07:15;;;;;;;11.23;6.28;;;;;;;20.26;100.00;101275.00;5033791;28;20032;-82
2022/08/20 00:09:41;;;;;;;11.57;5.32;;;;;;;20.25;100.00;101261.03;5031927;28;20042;-82
2022/08/20 00:12:08;;;;;;;11.52;5.90;;;;;;;20.20;100.00;101266.91;5046479;28;20025;-81
2022/08/20 00:14:34;;;;;;;8.85;5.22;;;;;;;20.17;100.00;101269.16;5050030;28;20119;-81
2022/08/20 00:17:02;;;;;;;11.68;7.45;;;;;;;20.19;100.00;101265.31;5054515;28;20730;-81
2022/08/20 00:19:37;;;;;;;10.02;5.63;;;;;;;20.18;100.00;101268.16;5046193;28;20035;-83
2022/08/20 00:22:03;;;;;;;12.60;6.50;;;;;;;20.22;100.00;101261.44;5041218;28;20135;-81
2022/08/20 00:24:28;;;;;;;10.75;6.45;;;;;;;20.18;100.00;101268.16;5028368;28;20545;-82
2022/08/20 00:26:54;;;;;;;11.18;6.70;;;;;;;20.17;100.00;101266.50;5032959;28;20032;-82
2022/08/20 00:29:19;;;;;;;8.20;5.38;;;;;;;20.11;100.00;101262.88;5043138;28;20033;-81
2022/08/20 00:31:45;;;;;;;10.73;6.47;;;;;;;20.10;100.00;101263.09;5035462;28;20389;-81
2022/08/20 00:34:10;;;;;;;13.75;7.20;;;;;;;20.06;100.00;101270.63;5032341;28;20055;-82
2022/08/20 00:36:36;;;;;;;11.95;6.57;;;;;;;20.01;100.00;101257.28;5034906;28;20031;-82
2022/08/20 00:39:02;;;;;;;11.98;6.32;;;;;;;20.02;100.00;101259.69;5043099;28;20039;-81
2022/08/20 00:41:28;;;;;;;13.93;6.85;;;;;;;19.96;100.00;101254.44;5032862;28;20024;-82
2022/08/20 00:44:16;;;;;;;12.70;5.95;;;;;;;19.92;100.00;101259.31;5032207;28;20079;-82
2022/08/20 00:46:43;;;;;;;13.88;6.38;;;;;;;19.91;100.00;101255.06;5035851;28;20043;-81
2022/08/20 00:49:17;;;;;;;10.05;5.60;;;;;;;19.87;100.00;101256.47;5032847;28;20020;-81
2022/08/20 00:51:45;;;;;;;9.50;5.38;;;;;;;19.88;100.00;101250.22;5035358;28;20024;-82
2022/08/20 00:54:17;;;;;;;11.77;6.60;;;;;;;19.87;100.00;101245.94;5033727;28;20109;-81
2022/08/20 00:56:46;;;;;;;9.48;5.80;;;;;;;19.87;100.00;101245.94;5055360;28;20090;-81
2022/08/20 00:59:17;;;;;;;10.23;5.55;;;;;;;19.88;100.00;101247.59;5048379;28;20475;-81
2022/08/20 01:01:44;;;;;;;8.60;4.82;;;;;;;19.89;100.00;101245.75;5033668;28;20029;-82
2022/08/20 01:04:10;;;;;;;8.77;5.18;;;;;;;19.90;100.00;101248.19;5035841;28;20117;-82
2022/08/20 01:06:40;;;;;;;9.85;6.28;;;;;;;19.89;100.00;101253.66;5032856;28;20025;-81
2022/08/20 01:09:06;;;;;;;8.98;5.82;;;;;;;19.86;100.00;101254.88;5044915;28;20512;-82
2022/08/20 01:11:34;;;;;;;12.40;5.97;;;;;;;19.86;100.00;101256.72;5057638;28;20040;-82
2022/08/20 01:14:18;;;;;;;9.48;6.43;;;;;;;19.80;100.00;101247.81;5044882;28;20025;-82
2022/08/20 01:16:47;;;;;;;11.05;5.90;;;;;;;19.80;100.00;101251.25;5032822;28;20654;-82
2022/08/20 01:19:15;;;;;;;9.20;5.15;;;;;;;19.81;100.00;101258.13;5045086;28;20074;-82
2022/08/20 01:21:41;;;;;;;9.27;5.50;;;;;;;19.80;100.00;101261.78;5041135;28;20128;-81
2022/08/20 01:24:19;;;;;;;8.77;6.00;;;;;;;19.80;100.00;101260.97;5059702;28;20033;-82
2022/08/20 01:26:48;;;;;;;11.57;6.35;;;;;;;19.79;100.00;101265.41;5042100;28;20021;-81
2022/08/20 01:29:24;;;;;;;11.18;6.40;;;;;;;19.81;100.00;101263.38;5053168;28;20032;-81
2022/08/20 01:31:50;;;;;;;8.50;5.93;;;;;;;19.81;100.00;101263.38;5032049;28;20028;-81
2022/08/20 01:34:20;;;;;;;10.20;6.50;;;;;;;19.79;100.00;101272.50;5032774;28;20657;-81
2022/08/20 01:36:49;;;;;;;9.05;5.22;;;;;;;19.80;100.00;101264.41;5049757;28;20032;-82
2022/08/20 01:39:22;;;;;;;10.65;6.78;;;;;;;19.76;100.00;101260.56;5049629;28;20036;-82
2022/08/20 01:41:50;;;;;;;10.10;6.03;;;;;;;19.75;100.00;101258.16;5027510;28;20520;-81
2022/08/20 01:44:17;;;;;;;12.38;6.97;;;;;;;19.73;100.00;101257.53;5045983;28;20475;-80
2022/08/20 01:46:45;;;;;;;11.25;6.13;;;;;;;19.72;100.00;101266.41;5048160;28;20488;-82
2022/08/20 01:49:10;;;;;;;11.00;6.30;;;;;;;19.73;100.00;101266.22;5033829;28;20025;-82
2022/08/20 01:51:36;;;;;;;9.98;5.72;;;;;;;19.71;100.00;101267.44;5050490;28;20101;-81
2022/08/20 01:54:03;;;;;;;9.90;6.75;;;;;;;19.72;100.00;101267.25;5038773;28;20028;-81
2022/08/20 01:56:30;;;;;;;10.02;6.90;;;;;;;19.75;100.00;101268.66;5046525;28;20017;-81
2022/08/20 01:58:58;;;;;;;13.07;6.18;;;;;;;19.77;100.00;101271.91;5040983;28;20066;-81
2022/08/20 02:01:34;;;;;;;10.85;6.47;;;;;;;19.78;100.00;101269.06;5036783;28;20051;-81
2022/08/20 02:04:04;;;;;;;10.55;6.47;;;;;;;19.80;100.00;101267.03;5050649;28;20548;-81
2022/08/20 02:06:32;;;;;;;8.88;6.43;;;;;;;19.83;100.00;101268.44;5038658;28;20044;-82
2022/08/20 02:08:59;;;;;;;11.68;6.97;;;;;;;19.83;100.00;101274.53;5033391;28;20040;-81
2022/08/20 02:11:27;;;;;;;16.73;7.32;;;;;;;19.83;100.00;101271.91;5049037;28;20111;-82
2022/08/20 02:13:53;;;;;;;12.98;7.22;;;;;;;19.84;100.00;101272.69;5036588;28;20025;-82
2022/08/20 02:16:28;;;;;;;11.55;6.50;;;;;;;19.83;100.00;101268.44;5043916;28;20416;-82
2022/08/20 02:18:57;;;;;;;10.40;7.18;;;;;;;19.81;100.00;101273.91;5056863;28;20033;-81
2022/08/20 02:21:26;;;;;;;12.35;7.90;;;;;;;19.80;100.00;101274.13;5057400;28;20036;-81
2022/08/20 02:23:51;;;;;;;12.35;7.28;;;;;;;19.78;100.00;101269.06;5039795;28;20142;-82
2022/08/20 02:26:18;;;;;;;12.95;7.22;;;;;;;19.80;100.00;101264.41;5055887;28;20122;-81
2022/08/20 02:28:49;;;;;;;11.60;6.82;;;;;;;19.78;100.00;101263.81;5048173;28;20029;-82
2022/08/20 02:31:19;;;;;;;13.05;7.18;;;;;;;19.78;100.00;101268.25;5034410;28;20067;-82
2022/08/20 02:33:46;;;;;;;12.45;7.80;;;;;;;19.77;100.00;101262.19;5041112;28;20078;-82
2022/08/20 02:36:13;;;;;;;15.57;7.63;;;;;;;19.78;100.00;101258.53;5057332;28;20041;-82
2022/08/20 02:38:39;;;;;;;10.50;7.47;;;;;;;19.76;100.00;101262.38;5038785;28;20071;-82
2022/08/20 02:41:06;;;;;;;11.55;6.63;;;;;;;19.73;100.00;101263.59;5049660;28;20021;-81
2022/08/20 02:43:32;;;;;;;13.32;7.38;;;;;;;19.73;100.00;101260.19;5057476;28;20075;-81
2022/08/20 02:45:58;;;;;;;14.77;8.60;;;;;;;19.72;100.00;101258.50;5052340;28;20052;-80
2022/08/20 02:48:24;;;;;;;11.27;7.30;;;;;;;19.72;100.00;101253.25;5038995;28;20103;-82
2022/08/20 02:50:56;;;;;;;9.85;7.03;;;;;;;19.73;100.00;101257.53;5052977;28;20044;-82
2022/08/20 02:53:24;;;;;;;12.90;7.18;;;;;;;19.75;100.00;101258.94;5037758;28;20025;-82
2022/08/20 02:55:50;;;;;;;13.85;6.90;;;;;;;19.76;100.00;101259.75;5057957;28;20067;-82
2022/08/20 02:58:17;;;;;;;12.85;7.80;;;;;;;19.72;100.00;101259.38;5047755;28;20059;-82
2022/08/20 03:00:43;;;;;;;11.98;7.68;;;;;;;19.68;100.00;101252.84;5056866;28;20052;-82
2022/08/20 03:03:09;;;;;;;12.32;7.05;;;;;;;19.65;100.00;101258.53;5056797;28;20417;-82
2022/08/20 03:05:37;;;;;;;12.30;7.53;;;;;;;19.63;100.00;101261.38;5039202;28;20036;-82
2022/08/20 03:08:04;;;;;;;12.05;7.95;;;;;;;19.63;100.00;101263.19;5053780;28;20485;-82
2022/08/20 03:10:33;;;;;;;12.02;6.80;;;;;;;19.63;100.00;101250.84;5057128;28;20037;-83
2022/08/20 03:13:01;;;;;;;11.02;7.72;;;;;;;19.65;100.00;101248.03;5057334;28;20036;-82
2022/08/20 03:15:28;;;;;;;10.82;7.18;;;;;;;19.67;100.00;101247.81;5053257;28;21922;-82
2022/08/20 03:17:53;;;;;;;11.60;7.40;;;;;;;19.69;100.00;101243.16;5056891;28;20054;-82
2022/08/20 03:20:19;;;;;;;9.50;6.57;;;;;;;19.68;100.00;101244.97;5036876;28;20028;-82
2022/08/20 03:22:45;;;;;;;10.77;6.50;;;;;;;19.68;100.00;101244.16;5035731;28;20389;-82
2022/08/20 03:25:10;;;;;;;10.77;7.60;;;;;;;19.67;100.00;101245.19;5062247;28;20048;-82
2022/08/20 03:27:36;;;;;;;14.52;7.60;;;;;;;19.64;100.00;101243.75;5054605;28;20052;-82
2022/08/20 03:30:05;;;;;;;10.48;6.75;;;;;;;19.63;100.00;101240.31;5053767;28;20043;-82
2022/08/20 03:32:31;;;;;;;10.88;6.82;;;;;;;19.62;100.00;101245.78;5038206;28;20118;-82
2022/08/20 03:34:56;;;;;;;16.25;9.27;;;;;;;19.61;100.00;101252.88;5044575;28;20031;-84
2022/08/20 03:37:22;;;;;;;15.93;8.90;;;;;;;19.51;100.00;101249.03;5037520;28;20063;-84
2022/08/20 03:39:47;;;;;;;11.43;7.00;;;;;;;19.44;100.00;101247.22;5043880;28;20036;-84
2022/08/20 03:42:13;;;;;;;14.60;7.20;;;;;;;19.42;100.00;101251.88;5039973;28;20028;-83
2022/08/20 03:44:38;;;;;;;13.55;5.80;;;;;;;19.33;100.00;101255.75;5054088;28;20633;-84
2022/08/20 03:47:08;;;;;;;11.95;5.80;;;;;;;19.26;100.00;101253.09;5046892;28;20083;-84
2022/08/20 03:49:34;;;;;;;9.68;5.93;;;;;;;19.21;100.00;101247.66;5052006;28;20033;-84
2022/08/20 03:52:02;;;;;;;8.07;4.78;;;;;;;19.22;100.00;101254.50;5034213;28;20186;-84
2022/08/20 03:54:27;;;;;;;9.77;5.30;;;;;;;19.20;100.00;101250.47;5053771;28;20036;-84
2022/08/20 03:56:53;;;;;;;7.93;4.40;;;;;;;19.18;100.00;101250.69;5032561;28;20523;-85
2022/08/20 03:59:18;;;;;;;9.77;4.20;;;;;;;19.16;100.00;101244.03;5031828;28;20040;-83
2022/08/20 04:01:44;;;;;;;5.97;3.92;;;;;;;19.11;100.00;101241.97;5047284;28;20042;-83
2022/08/20 04:04:10;;;;;;;6.05;3.45;;;;;;;19.10;100.00;101245.63;5052975;28;20024;-82
2022/08/20 04:06:35;;;;;;;5.47;3.50;;;;;;;19.06;100.00;101247.03;5040205;28;21441;-84
2022/08/20 04:09:02;;;;;;;7.22;3.72;;;;;;;19.04;100.00;101254.28;5032337;28;20067;-84
2022/08/20 04:11:27;;;;;;;7.45;4.57;;;;;;;19.01;100.00;101258.16;5050967;28;20028;-84
2022/08/20 04:13:53;;;;;;;6.68;3.75;;;;;;;18.96;100.00;101252.69;5028719;28;20017;-84
2022/08/20 04:16:18;;;;;;;5.32;3.58;;;;;;;18.95;100.00;101258.97;5053150;28;20455;-83
2022/08/20 04:18:49;;;;;;;6.88;3.80;;;;;;;18.95;100.00;101268.63;5036724;28;20035;-83
2022/08/20 04:21:20;;;;;;;7.53;4.70;;;;;;;18.97;100.00;101269.28;5034704;28;20032;-83
2022/08/20 04:23:46;;;;;;;11.38;5.57;;;;;;;19.00;100.00;101277.53;5038330;28;20131;-83
2022/08/20 04:26:11;;;;;;;7.05;4.80;;;;;;;18.98;100.00;101276.13;5034283;28;20541;-84
2022/08/20 04:28:37;;;;;;;7.53;4.65;;;;;;;19.00;100.00;101282.00;5034301;28;20036;-84
2022/08/20 04:31:02;;;;;;;8.88;5.20;;;;;;;19.00;100.00;101285.41;5029856;28;20029;-85
2022/08/20 04:33:29;;;;;;;10.25;5.97;;;;;;;18.98;100.00;101287.44;5051302;28;20113;-84
2022/08/20 04:35:59;;;;;;;10.25;6.50;;;;;;;18.98;100.00;101303.22;5053468;28;20397;-83
2022/08/20 04:38:25;;;;;;;14.13;7.53;;;;;;;18.99;100.00;101304.84;5037609;28;20103;-84
2022/08/20 04:40:59;;;;;;;19.05;8.70;;;;;;;19.06;100.00;101302.22;5039189;28;20028;-83
2022/08/20 04:46:27;;;;;;;10.60;6.47;;;;;;;18.89;100.00;101314.09;5051191;28;20032;-85
2022/08/20 04:48:59;;;;;;;12.93;8.13;;;;;;;18.85;100.00;101309.28;5052241;28;20032;-84
2022/08/20 04:52:27;;;;;;;12.93;7.03;;;;;;;18.85;100.00;101317.16;5052036;28;20047;-84
2022/08/20 04:54:55;;;;;;;13.18;8.35;;;;;;;18.80;100.00;101313.47;5048286;28;20032;-84
2022/08/20 04:57:25;;;;;;;12.45;7.88;;;;;;;18.71;100.00;101323.31;5032507;28;20111;-84
2022/08/20 05:00:04;;;;;;;14.50;7.53;;;;;;;18.69;100.00;101325.34;5031878;28;20043;-84
2022/08/20 05:02:36;;;;;;;15.50;8.52;;;;;;;18.61;100.00;101325.50;5034544;28;20135;-83
2022/08/20 05:08:37;;;;;;;;;;;;;;;;;;;;;
2022/08/20 05:11:25;;;;;;;17.98;10.98;;;;;;;18.62;100.00;101324.50;5063288;28;20111;-83
2022/08/20 05:14:01;;;;;;;17.20;11.18;;;;;;;18.64;100.00;101323.28;5036549;28;20063;-84
2022/08/20 05:16:37;;;;;;;13.75;9.00;;;;;;;18.67;100.00;101324.72;5037610;28;20028;-83
2022/08/20 05:19:03;;;;;;;21.73;12.75;;;;;;;18.73;100.00;101326.56;5033224;28;20168;-83
2022/08/20 05:21:47;;;;;;;27.58;16.02;;;;;;;18.78;100.00;101328.59;5032155;28;20161;-83
2022/08/20 05:24:13;;;;;;;31.95;17.35;;;;;;;18.74;100.00;101333.44;5027347;28;20662;-83
2022/08/20 05:26:39;;;;;;;33.78;20.00;;;;;;;18.79;100.00;101331.03;5025826;28;20069;-83
2022/08/20 05:29:05;;;;;;;34.90;20.88;;;;;;;18.73;100.00;101339.69;5031702;28;20036;-83
2022/08/20 05:31:32;;;;;;;32.53;19.65;;;;;;;18.70;100.00;101342.72;5034309;28;20473;-84
2022/08/20 05:34:08;;;;;;;35.65;20.95;;;;;;;18.70;100.00;101334.03;5035513;28;20035;-83
2022/08/20 05:36:34;;;;;;;44.67;24.13;;;;;;;18.74;100.00;101336.06;5034060;28;20241;-83
2022/08/20 05:39:07;;;;;;;32.78;21.50;;;;;;;18.68;100.00;101340.31;5027750;28;20029;-83
2022/08/20 05:41:37;;;;;;;43.15;27.08;;;;;;;18.78;100.00;101344.34;5033500;28;20527;-83
2022/08/20 05:44:03;;;;;;;47.67;26.20;;;;;;;18.70;100.00;101339.28;5035690;28;20086;-83
2022/08/20 05:46:32;;;;;;;42.42;25.70;;;;;;;18.68;100.00;101334.22;5031214;28;20033;-82
2022/08/20 05:49:00;;;;;;;45.85;26.05;;;;;;;18.79;100.00;101330.22;5049044;28;20042;-82
2022/08/20 05:51:26;;;;;;;49.38;27.42;;;;;;;18.80;100.00;101339.72;5032917;28;20378;-82
2022/08/20 05:53:53;;;;;;;47.65;26.73;;;;;;;18.80;100.00;101340.56;5044393;28;20470;-81
2022/08/20 05:56:19;;;;;;;47.85;27.25;;;;;;;18.71;100.00;101349.59;5046217;28;20070;-82
2022/08/20 05:58:44;;;;;;;55.20;28.63;;;;;;;18.69;100.00;101348.97;5028717;28;20052;-81
2022/08/20 06:01:09;;;;;;;49.70;27.45;;;;;;;18.71;100.00;101351.41;5048200;28;20428;-82
2022/08/20 06:06:19;;;;;;;49.10;26.02;;;;;;;18.89;100.00;101343.81;5054326;28;20048;-82
2022/08/20 06:08:45;;;;;;;53.92;28.35;;;;;;;18.97;100.00;101345.47;5038793;28;20028;-81
2022/08/20 06:11:10;;;;;;;46.38;27.65;;;;;;;18.95;100.00;101334.31;5049025;28;20037;-82
2022/08/20 06:13:35;;;;;;;45.15;25.55;;;;;;;18.89;100.00;101343.81;5030318;28;20024;-82
2022/08/20 06:16:01;;;;;;;46.25;27.50;;;;;;;18.84;100.00;101344.41;5034134;28;20546;-81
2022/08/20 06:18:26;;;;;;;49.78;27.05;;;;;;;18.79;100.00;101352.03;5061976;28;20124;-81
2022/08/20 06:20:52;;;;;;;47.95;26.23;;;;;;;18.75;100.00;101348.19;5053746;28;20028;-82
2022/08/20 06:23:19;;;;;;;50.10;26.73;;;;;;;18.76;100.00;101355.06;5035681;28;20131;-81
2022/08/20 06:25:45;;;;;;;38.22;23.55;;;;;;;18.73;100.00;101352.03;5031690;28;20046;-82
2022/08/20 06:28:12;;;;;;;43.85;24.83;;;;;;;18.77;100.00;101354.06;5044603;28;20032;-83
2022/08/20 06:30:38;;;;;;;43.22;25.00;;;;;;;18.88;100.00;101355.34;5032020;28;20113;-82
2022/08/20 06:33:04;;;;;;;41.83;24.52;;;;;;;18.84;100.00;101354.91;5029549;28;20169;-82
2022/08/20 06:35:30;;;;;;;41.90;23.65;;;;;;;18.87;100.00;101353.72;5029490;28;20111;-82
2022/08/20 06:37:59;;;;;;;35.50;22.98;;;;;;;18.91;100.00;101364.63;5029393;28;20033;-81
2022/08/20 06:40:27;;;;;;;44.00;24.77;;;;;;;18.91;100.00;101367.25;5052246;28;20029;-81
2022/08/20 06:42:53;;;;;;;41.85;24.98;;;;;;;18.93;100.00;101371.34;5053394;28;20024;-82
2022/08/20 06:45:31;;;;;;;41.47;24.08;;;;;;;18.93;100.00;101365.25;5028483;28;20036;-82
2022/08/20 06:47:59;;;;;;;39.72;22.63;;;;;;;18.93;100.00;101366.06;5052930;28;20115;-82
2022/08/20 06:50:32;;;;;;;44.80;22.75;;;;;;;18.83;100.00;101368.25;5053156;28;20037;-81
2022/08/20 06:52:58;;;;;;;40.90;24.85;;;;;;;18.89;100.00;101369.28;5045142;28;20141;-82
2022/08/20 06:55:25;;;;;;;46.30;24.33;;;;;;;18.92;100.00;101372.31;5049796;28;20055;-83
2022/08/20 06:58:00;;;;;;;40.92;24.25;;;;;;;18.83;100.00;101369.06;5052224;28;20029;-82
2022/08/20 07:00:27;;;;;;;45.88;24.10;;;;;;;18.76;100.00;101377.88;5036111;28;20094;-82
2022/08/20 07:02:53;;;;;;;40.72;22.85;;;;;;;18.75;100.00;101371.81;5039312;28;20020;-81
2022/08/20 07:05:19;;;;;;;45.92;24.08;;;;;;;18.78;100.00;101378.50;5050493;28;20048;-82
2022/08/20 07:07:49;;;;;;;45.63;25.30;;;;;;;18.72;100.00;101380.09;5048742;28;20052;-82
2022/08/20 07:10:18;;;;;;;41.53;23.45;;;;;;;18.81;100.00;101370.25;5040850;28;20039;-81
2022/08/20 07:12:45;;;;;;;45.25;23.92;;;;;;;18.72;100.00;101382.72;5054848;28;20108;-81
2022/08/20 07:15:12;;;;;;;46.00;24.85;;;;;;;18.64;100.00;101380.25;5051718;28;20106;-82
2022/08/20 07:17:38;;;;;;;44.70;23.25;;;;;;;18.64;100.00;101391.56;5033798;28;20914;-83
2022/08/20 07:20:06;;;;;;;43.28;23.35;;;;;;;18.59;100.00;101391.38;5037578;28;20068;-82
2022/08/20 07:22:35;;;;;;;42.10;22.90;;;;;;;18.67;100.00;101393.81;5049801;28;20082;-82
2022/08/20 07:25:06;;;;;;;46.75;23.45;;;;;;;18.66;100.00;101396.63;5068560;28;20750;-81
2022/08/20 07:27:32;;;;;;;47.90;24.42;;;;;;;18.72;100.00;101393.22;5034347;28;20401;-80
2022/08/20 07:32:43;;;;;;;38.33;21.83;;;;;;;18.73;100.00;101394.84;5069155;28;20028;-81
2022/08/20 07:35:11;;;;;;;40.78;20.17;;;;;;;18.73;100.00;101401.94;5050389;28;20132;-81
2022/08/20 07:37:40;;;;;;;44.97;19.38;;;;;;;18.75;100.00;101405.16;5048623;28;20066;-81
2022/08/20 07:40:08;;;;;;;42.67;19.88;;;;;;;18.71;100.00;101409.19;5049059;28;20045;-81
2022/08/20 07:42:33;;;;;;;48.45;20.90;;;;;;;18.67;100.00;101409.56;5032737;28;20036;-85
2022/08/20 07:44:58;;;;;;;37.85;19.02;;;;;;;18.64;100.00;101407.34;5053038;28;20066;-83
2022/08/20 07:47:24;;;;;;;42.20;19.27;;;;;;;18.66;100.00;101415.81;5047711;28;20093;-81
2022/08/20 07:49:49;;;;;;;39.25;18.10;;;;;;;18.68;100.00;101419.09;5024575;28;20033;-81
2022/08/20 07:52:15;;;;;;;41.83;19.00;;;;;;;18.79;100.00;101415.09;5045088;28;20025;-81
2022/08/20 07:54:44;;;;;;;37.13;17.92;;;;;;;18.70;100.00;101429.38;5032263;28;20105;-82
2022/08/20 07:57:10;;;;;;;27.25;15.15;;;;;;;18.66;100.00;101428.16;5046564;28;20040;-80
2022/08/20 07:59:37;;;;;;;40.83;19.17;;;;;;;18.76;100.00;101423.38;5034708;28;20024;-80
2022/08/20 08:02:03;;;;;;;38.22;15.50;;;;;;;18.56;100.00;101433.75;5043262;28;20086;-84
2022/08/20 08:04:30;;;;;;;42.55;19.35;;;;;;;18.56;100.00;101436.38;5047242;28;20048;-81
2022/08/20 08:06:58;;;;;;;40.10;19.63;;;;;;;18.42;100.00;101432.88;5067758;28;20035;-81
2022/08/20 08:09:26;;;;;;;34.00;14.90;;;;;;;18.42;100.00;101434.69;5051148;28;20105;-83
2022/08/20 08:11:56;;;;;;;35.25;18.60;;;;;;;18.40;100.00;101434.06;5034719;28;20043;-80
2022/08/20 08:14:26;;;;;;;34.92;16.13;;;;;;;18.43;100.00;101434.50;5035568;28;20381;-80
2022/08/20 08:16:54;;;;;;;35.20;15.80;;;;;;;18.45;100.00;101435.09;5033534;28;20021;-79
2022/08/20 08:19:20;;;;;;;30.20;13.77;;;;;;;18.52;100.00;101439.59;5032202;28;20776;-80
2022/08/20 08:21:45;;;;;;;34.17;15.23;;;;;;;18.52;100.00;101445.66;5052433;28;20430;-79
2022/08/20 08:24:12;;;;;;;43.33;16.95;;;;;;;18.56;100.00;101446.09;5032922;28;20035;-79
2022/08/20 08:26:37;;;;;;;45.22;17.67;;;;;;;18.48;100.00;101444.44;5037627;28;20123;-80
2022/08/20 08:29:06;;;;;;;36.85;17.30;;;;;;;18.45;100.00;101442.97;5061990;28;21022;-81
2022/08/20 08:31:33;;;;;;;40.83;17.48;;;;;;;18.54;100.00;101438.41;5062006;28;20987;-81
2022/08/20 08:33:59;;;;;;;41.97;17.38;;;;;;;18.49;100.00;101438.97;5048811;28;20798;-81
2022/08/20 08:36:25;;;;;;;40.70;16.77;;;;;;;18.48;100.00;101439.19;5035563;28;20039;-81
2022/08/20 08:38:51;;;;;;;41.13;17.88;;;;;;;18.47;100.00;101440.16;5035750;28;20020;-83
2022/08/20 08:41:28;;;;;;;42.30;17.00;;;;;;;18.39;100.00;101443.75;5034453;28;20455;-81
2022/08/20 08:44:02;;;;;;;41.85;18.55;;;;;;;18.44;100.00;101446.63;5051889;28;20029;-82
2022/08/20 08:46:39;;;;;;;32.55;14.70;;;;;;;18.39;100.00;101453.47;5032489;28;20027;-81
2022/08/20 08:49:06;;;;;;;41.13;17.00;;;;;;;18.39;100.00;101454.25;5051233;28;20497;-82
2022/08/20 08:51:39;;;;;;;37.45;19.65;;;;;;;18.40;100.00;101460.31;5037629;28;20123;-81
2022/08/20 08:54:06;;;;;;;33.30;16.90;;;;;;;18.39;100.00;101456.88;5035550;28;20644;-81
2022/08/20 08:56:33;;;;;;;47.28;19.80;;;;;;;18.44;100.00;101461.53;5047562;28;20051;-82
2022/08/20 08:59:06;;;;;;;43.10;19.88;;;;;;;18.45;100.00;101465.81;5037454;28;20124;-83
2022/08/20 09:01:33;;;;;;;;;;;;;;;18.52;100.00;101468.50;5035120;28;20032;-81
2022/08/20 09:04:01;;;;;;;52.28;20.42;;;;;;;18.49;100.00;101464.41;5030982;28;19920;-81
2022/08/20 09:06:27;;;;;;;44.28;21.48;;;;;;;18.45;100.00;101471.88;5053056;28;20036;-80
2022/08/20 09:08:56;;;;;;;43.83;19.73;;;;;;;18.52;100.00;101471.91;5057178;28;20036;-82
2022/08/20 09:11:23;;;;;;;38.72;17.75;;;;;;;18.45;100.00;101473.69;5061123;28;20082;-82
2022/08/20 09:13:50;;;;;;;43.00;20.40;;;;;;;18.49;100.00;101470.47;5047901;28;20020;-81
2022/08/20 09:16:16;;;;;;;41.63;18.70;;;;;;;18.45;100.00;101471.06;5032534;28;20033;-81
2022/08/20 09:18:42;;;;;;;47.72;20.00;;;;;;;18.59;100.00;101471.94;5034580;28;20173;-82
2022/08/20 09:21:08;;;;;;;42.78;19.52;;;;;;;18.65;100.00;101473.81;5048677;28;20385;-82
2022/08/20 09:23:34;;;;;;;41.70;18.45;;;;;;;18.69;100.00;101477.69;5031226;28;20078;-82
2022/08/20 09:26:00;;;;;;;44.78;20.25;;;;;;;18.90;100.00;101478.63;5043517;28;20043;-82
2022/08/20 09:28:25;;;;;;;47.10;19.73;;;;;;;18.81;100.00;101476.16;5030584;28;20029;-83
2022/08/20 09:30:51;;;;;;;43.55;20.00;;;;;;;18.74;99.82;101482.34;5049113;28;20405;-84
2022/08/20 09:33:16;;;;;;;49.70;21.85;;;;;;;18.76;99.76;101475.06;5051148;28;20041;-84
2022/08/20 09:35:44;;;;;;;40.97;19.17;;;;;;;18.76;99.78;101481.16;5049832;28;20044;-84
2022/08/20 09:38:10;;;;;;;39.40;17.58;;;;;;;18.82;99.44;101485.66;5047565;28;20082;-83
2022/08/20 09:40:36;;;;;;;35.40;15.90;;;;;;;18.86;100.00;101483.47;5029736;28;20498;-81
2022/08/20 09:43:04;;;;;;;41.13;18.52;;;;;;;18.93;100.00;101476.44;5048140;28;20405;-83
2022/08/20 09:45:33;;;;;;;40.33;17.85;;;;;;;18.99;99.74;101480.09;5048489;28;20028;-83
2022/08/20 09:47:58;;;;;;;44.00;19.92;;;;;;;18.98;99.72;101484.50;5049393;28;20047;-83
2022/08/20 09:50:26;;;;;;;36.83;16.98;;;;;;;19.16;100.00;101491.09;5028587;28;20029;-85
2022/08/20 09:52:53;;;;;;;47.28;21.73;;;;;;;19.13;99.83;101487.00;5045396;28;20111;-83
2022/08/20 09:55:25;;;;;;;42.95;19.25;;;;;;;19.24;98.42;101480.38;5026913;28;20116;-84
2022/08/20 09:57:51;;;;;;;45.85;20.10;;;;;;;19.33;98.74;101478.41;5022441;28;20032;-85
2022/08/20 10:00:17;;;;;;;48.40;22.63;;;;;;;19.31;97.10;101477.78;5030462;28;20037;-83
2022/08/20 10:02:43;;;;;;;38.75;18.33;;;;;;;19.39;96.75;101482.88;5042261;28;20037;-84
2022/08/20 10:05:09;;;;;;;48.35;20.10;;;;;;;19.44;96.74;101473.38;5049680;28;20081;-83
2022/08/20 10:07:37;;;;;;;45.55;20.55;;;;;;;19.43;97.49;101473.56;5049748;28;20032;-84
2022/08/20 10:10:05;;;;;;;43.88;22.15;;;;;;;19.48;97.70;101472.97;5040378;28;20059;-84
2022/08/20 10:12:35;;;;;;;43.75;21.63;;;;;;;19.53;96.58;101476.63;5049226;28;20033;-84
2022/08/20 10:15:04;;;;;;;41.80;22.38;;;;;;;19.52;95.83;101477.66;5052297;28;20039;-84
2022/08/20 10:17:29;;;;;;;41.13;21.23;;;;;;;19.64;96.45;101480.50;5048524;28;20044;-82
2022/08/20 10:19:56;;;;;;;43.30;21.85;;;;;;;19.61;95.21;101479.09;5037055;28;20032;-83
2022/08/20 10:22:21;;;;;;;38.75;21.55;;;;;;;19.56;94.83;101486.75;5036859;28;20032;-82
2022/08/20 10:24:46;;;;;;;39.33;19.40;;;;;;;19.70;94.88;101495.47;5052400;28;20025;-83
2022/08/20 10:30:28;;;;;;;48.83;21.55;;;;;;;19.61;96.36;101489.59;5023270;28;20045;-84
2022/08/20 10:32:54;;;;;;;47.55;23.25;;;;;;;19.57;95.07;101496.28;5049877;28;20032;-83
2022/08/20 10:35:20;;;;;;;43.45;21.20;;;;;;;19.55;94.14;101495.66;5034649;28;20031;-85
2022/08/20 10:37:45;;;;;;;43.75;21.88;;;;;;;19.63;95.43;101495.47;5034801;28;20024;-87
2022/08/20 10:40:14;;;;;;;39.97;21.35;;;;;;;19.64;94.97;101491.00;5053665;28;20028;-86
2022/08/20 10:42:42;;;;;;;49.17;23.33;;;;;;;19.71;95.37;101491.03;5030174;28;20093;-87
2022/08/20 10:45:09;;;;;;;43.50;22.45;;;;;;;19.79;93.30;101489.03;5039601;28;20028;-87
2022/08/20 10:47:35;;;;;;;50.35;22.02;;;;;;;19.91;92.11;101494.53;5038692;28;20024;-88
2022/08/20 10:50:02;;;;;;;39.38;21.48;;;;;;;19.86;92.31;101490.91;5036563;28;20505;-88
2022/08/20 10:52:28;;;;;;;38.00;21.10;;;;;;;20.16;93.05;101486.03;5037623;28;20116;-86
2022/08/20 10:54:59;;;;;;;46.15;20.77;;;;;;;20.65;92.46;101484.78;5036490;28;20032;-87
2022/08/20 10:57:27;;;;;;;43.33;20.73;;;;;;;20.91;89.28;101480.47;5031847;28;20061;-86
2022/08/20 10:59:57;;;;;;;36.67;19.80;;;;;;;21.35;86.37;101484.94;5038496;28;20158;-87
2022/08/20 11:02:24;;;;;;;41.13;20.52;;;;;;;21.41;85.67;101483.28;5037968;28;20040;-86
2022/08/20 11:04:50;;;;;;;37.83;20.05;;;;;;;21.61;86.60;101480.56;5052219;28;20044;-88
2022/08/20 11:07:29;;;;;;;34.22;19.38;;;;;;;21.75;85.13;101481.28;5032524;28;20032;-87
2022/08/20 11:09:56;;;;;;;35.58;19.80;;;;;;;21.57;82.86;101480.19;5048507;28;20067;-87
2022/08/20 11:12:22;;;;;;;36.38;20.10;;;;;;;21.49;81.53;101490.16;5051374;28;20193;-88
2022/08/20 11:14:49;;;;;;;36.13;18.77;;;;;;;21.89;83.61;101480.16;5038074;28;20033;-85
2022/08/20 11:17:24;;;;;;;36.45;19.25;;;;;;;22.20;82.18;101480.31;5054763;28;20119;-87
2022/08/20 11:19:50;;;;;;;35.00;18.58;;;;;;;22.43;79.00;101479.72;5032898;28;20436;-86
2022/08/20 11:22:19;;;;;;;32.38;18.08;;;;;;;22.59;80.33;101481.81;5037631;28;20101;-85
2022/08/20 11:24:47;;;;;;;31.88;18.48;;;;;;;22.72;78.11;101486.13;5061773;23;20059;-73
2022/08/20 11:27:27;;;;;;;41.60;17.50;;;;;;;23.05;80.03;101479.66;5059801;28;20029;-73
2022/08/20 11:29:52;;;;;;;32.13;16.58;;;;;;;23.14;74.88;101486.28;5058110;28;20072;-73